createdAt,value
2019-05-09T00:01:33.797Z,14.67
2019-05-09T00:04:03.352Z,14.80
2019-05-09T00:06:33.801Z,14.70
2019-05-09T00:09:03.733Z,15.03
2019-05-09T00:11:33.590Z,14.77
2019-05-09T00:14:04.347Z,15.63
2019-05-09T00:16:33.509Z,14.90
2019-05-09T00:19:03.301Z,15.17
2019-05-09T00:21:39.542Z,14.30
2019-05-09T00:24:07.947Z,14.60
2019-05-09T00:26:36.611Z,15.03
2019-05-09T00:29:06.658Z,15.60
2019-05-09T00:31:36.695Z,15.17
2019-05-09T00:34:06.735Z,15.03
2019-05-09T00:36:35.185Z,15.23
2019-05-09T00:39:04.219Z,15.43
2019-05-09T00:41:33.125Z,15.67
2019-05-09T00:44:03.486Z,14.70
2019-05-09T00:46:36.476Z,14.90
2019-05-09T00:49:06.502Z,14.57
2019-05-09T00:51:35.144Z,14.50
2019-05-09T00:54:04.308Z,15.50
2019-05-09T00:56:33.247Z,14.30
2019-05-09T00:59:03.693Z,15.13
2019-05-09T01:01:34.238Z,14.80
2019-05-09T01:04:04.339Z,14.47
2019-05-09T01:06:34.022Z,14.20
2019-05-09T01:09:04.233Z,14.23
2019-05-09T01:11:33.362Z,17.27
2019-05-09T01:14:03.567Z,15.43
2019-05-09T01:16:33.545Z,14.67
2019-05-09T01:19:03.650Z,15.10
2019-05-09T01:21:33.362Z,14.80
2019-05-09T01:24:03.356Z,14.60
2019-05-09T01:26:33.391Z,14.60
2019-05-09T01:29:04.129Z,15.80
2019-05-09T01:31:33.282Z,15.37
2019-05-09T01:34:04.204Z,15.43
2019-05-09T01:36:50.690Z,14.30
2019-05-09T01:39:19.113Z,14.80
2019-05-09T01:41:47.762Z,15.23
2019-05-09T01:44:16.165Z,14.70
2019-05-09T01:46:44.559Z,14.77
2019-05-09T01:49:13.804Z,14.07
2019-05-09T01:51:44.480Z,14.87
2019-05-09T01:54:13.416Z,15.33
2019-05-09T01:56:43.061Z,14.47
2019-05-09T01:59:13.662Z,14.17
2019-05-09T02:01:43.418Z,14.90
2019-05-09T02:04:13.675Z,13.77
2019-05-09T02:06:44.018Z,14.13
2019-05-09T02:09:14.064Z,15.17
2019-05-09T02:11:45.421Z,15.17
2019-05-09T02:14:14.401Z,16.27
2019-05-09T02:17:00.486Z,15.10
2019-05-09T02:19:43.957Z,15.67
2019-05-09T02:22:30.245Z,14.53
2019-05-09T02:24:58.643Z,14.63
2019-05-09T02:27:27.036Z,14.10
2019-05-09T02:29:55.441Z,14.53
2019-05-09T02:32:24.183Z,15.17
2019-05-09T02:34:54.793Z,14.27
2019-05-09T02:37:22.758Z,13.80
2019-05-09T02:39:51.229Z,14.37
2019-05-09T02:42:19.889Z,13.70
2019-05-09T02:44:49.265Z,13.53
2019-05-09T02:47:19.809Z,14.27
2019-05-09T02:49:48.741Z,14.13
2019-05-09T02:52:19.796Z,14.03
2019-05-09T02:54:49.955Z,14.53
2019-05-09T02:57:18.644Z,13.87
2019-05-09T02:59:59.253Z,13.97
2019-05-09T03:02:29.891Z,15.23
2019-05-09T03:04:58.504Z,14.50
2019-05-09T03:07:48.272Z,14.23
2019-05-09T03:10:15.391Z,14.67
2019-05-09T03:12:44.069Z,14.27
2019-05-09T03:15:13.306Z,14.33
2019-05-09T03:17:41.714Z,14.30
2019-05-09T03:20:12.327Z,13.57
2019-05-09T03:22:40.973Z,14.03
2019-05-09T03:25:09.438Z,15.80
2019-05-09T03:27:42.532Z,15.00
2019-05-09T03:30:29.182Z,14.23
2019-05-09T03:32:59.714Z,15.60
2019-05-09T03:35:27.708Z,15.43
2019-05-09T03:38:08.638Z,15.70
2019-05-09T03:40:38.009Z,15.07
2019-05-09T03:43:08.056Z,14.77
2019-05-09T03:45:38.247Z,14.90
2019-05-09T03:48:23.582Z,15.37
2019-05-09T03:50:51.976Z,16.00
2019-05-09T03:53:20.786Z,14.03
2019-05-09T03:55:51.096Z,15.60
2019-05-09T03:58:20.929Z,13.50
2019-05-09T04:00:49.803Z,14.83
2019-05-09T04:03:20.293Z,14.27
2019-05-09T04:05:56.535Z,13.57
2019-05-09T04:08:20.111Z,14.63
2019-05-09T04:10:53.261Z,13.23
2019-05-09T04:13:24.670Z,13.60
2019-05-09T04:15:53.061Z,13.40
2019-05-09T04:18:21.485Z,13.83
2019-05-09T04:20:50.170Z,12.83
2019-05-09T04:23:18.805Z,13.70
2019-05-09T04:25:48.873Z,13.20
2019-05-09T04:28:17.789Z,12.10
2019-05-09T04:30:47.760Z,12.50
2019-05-09T04:33:17.711Z,12.00
2019-05-09T04:35:47.552Z,12.83
2019-05-09T04:38:17.885Z,12.73
2019-05-09T04:40:48.799Z,12.23
2019-05-09T04:43:21.199Z,11.03
2019-05-09T04:45:53.309Z,11.67
2019-05-09T04:48:34.430Z,11.93
2019-05-09T04:51:04.702Z,11.00
2019-05-09T04:53:33.953Z,12.40
2019-05-09T04:56:19.617Z,12.03
2019-05-09T04:58:48.307Z,11.17
2019-05-09T05:01:28.133Z,11.43
2019-05-09T05:03:57.871Z,11.60
2019-05-09T05:06:28.051Z,10.70
2019-05-09T05:08:58.397Z,11.37
2019-05-09T05:11:27.903Z,10.60
2019-05-09T05:13:58.409Z,10.90
2019-05-09T05:16:27.414Z,10.50
2019-05-09T05:18:58.286Z,10.70
2019-05-09T05:21:28.027Z,11.03
2019-05-09T05:23:58.067Z,10.17
2019-05-09T05:26:27.693Z,11.70
2019-05-09T05:28:58.041Z,11.00
2019-05-09T05:31:28.363Z,10.33
2019-05-09T05:33:58.324Z,9.67
2019-05-09T05:36:27.925Z,11.47
2019-05-09T05:38:58.442Z,10.57
2019-05-09T05:41:28.462Z,10.70
2019-05-09T05:43:57.997Z,13.93
2019-05-09T05:46:34.016Z,12.40
2019-05-09T05:49:02.676Z,10.80
2019-05-09T05:51:32.699Z,12.13
2019-05-09T05:54:01.659Z,11.10
2019-05-09T05:56:30.046Z,11.03
2019-05-09T05:58:58.444Z,10.17
2019-05-09T06:01:27.858Z,10.20
2019-05-09T06:03:58.604Z,10.67
2019-05-09T06:06:27.925Z,11.57
2019-05-09T06:08:57.935Z,14.53
2019-05-09T06:11:28.135Z,11.20
2019-05-09T06:14:05.118Z,11.37
2019-05-09T06:16:28.157Z,10.07
2019-05-09T06:18:58.571Z,10.93
2019-05-09T06:21:28.316Z,11.10
2019-05-09T06:23:58.402Z,11.30
2019-05-09T06:26:31.754Z,11.30
2019-05-09T06:29:00.159Z,10.97
2019-05-09T06:31:28.617Z,10.27
2019-05-09T06:33:57.896Z,10.90
2019-05-09T06:36:28.323Z,10.63
2019-05-09T06:38:58.796Z,10.87
2019-05-09T06:41:28.552Z,9.33
2019-05-09T06:44:13.272Z,9.97
2019-05-09T06:46:33.538Z,9.80
2019-05-09T06:49:23.284Z,9.57
2019-05-09T06:51:33.685Z,9.40
2019-05-09T06:54:02.352Z,9.73
2019-05-09T06:56:31.056Z,8.87
2019-05-09T06:58:59.458Z,9.10
2019-05-09T07:01:37.413Z,8.60
2019-05-09T07:04:09.190Z,8.20
2019-05-09T07:06:39.322Z,8.10
2019-05-09T07:09:28.003Z,8.23
2019-05-09T07:11:58.605Z,8.37
2019-05-09T07:14:32.387Z,7.83
2019-05-09T07:16:58.485Z,10.87
2019-05-09T07:19:28.040Z,7.90
2019-05-09T07:22:13.574Z,7.33
2019-05-09T07:25:06.503Z,8.50
2019-05-09T07:27:31.892Z,8.33
2019-05-09T07:30:01.956Z,7.13
2019-05-09T07:32:48.756Z,7.23
2019-05-09T07:35:18.589Z,7.53
2019-05-09T07:37:48.778Z,8.10
2019-05-09T07:40:18.240Z,7.13
2019-05-09T07:42:48.027Z,7.50
2019-05-09T07:45:17.829Z,7.53
2019-05-09T07:47:47.787Z,7.13
2019-05-09T07:50:19.066Z,7.53
2019-05-09T07:52:47.837Z,7.10
2019-05-09T07:55:18.111Z,8.53
2019-05-09T07:57:54.661Z,6.57
2019-05-09T08:00:31.794Z,7.23
2019-05-09T08:03:00.511Z,6.60
2019-05-09T08:05:30.738Z,5.60
2019-05-09T08:07:59.125Z,6.13
2019-05-09T08:10:32.308Z,6.23
2019-05-09T08:12:58.564Z,6.50
2019-05-09T08:15:27.974Z,5.80
2019-05-09T08:17:58.923Z,6.00
2019-05-09T08:20:27.663Z,7.63
2019-05-09T08:22:58.614Z,6.67
2019-05-09T08:25:27.654Z,5.50
2019-05-09T08:27:58.804Z,5.73
2019-05-09T08:30:35.159Z,5.30
2019-05-09T08:32:59.671Z,6.20
2019-05-09T08:35:28.073Z,5.97
2019-05-09T08:37:58.283Z,6.07
2019-05-09T08:40:28.436Z,5.50
2019-05-09T08:42:58.757Z,5.97
2019-05-09T08:45:30.764Z,6.07
2019-05-09T08:47:57.864Z,6.33
2019-05-09T08:50:28.256Z,6.67
2019-05-09T08:52:57.583Z,5.53
2019-05-09T08:55:27.767Z,6.03
2019-05-09T08:57:58.702Z,5.77
2019-05-09T09:00:28.159Z,5.57
2019-05-09T09:02:57.557Z,5.50
2019-05-09T09:05:28.628Z,6.23
2019-05-09T09:07:57.891Z,6.10
2019-05-09T09:10:29.119Z,5.20
2019-05-09T09:12:58.115Z,7.03
2019-05-09T09:15:50.042Z,6.30
2019-05-09T09:17:57.874Z,6.03
2019-05-09T09:20:28.751Z,5.83
2019-05-09T09:22:58.203Z,6.40
2019-05-09T09:25:28.693Z,6.33
2019-05-09T09:27:58.199Z,7.57
2019-05-09T09:30:29.337Z,6.37
2019-05-09T09:32:58.798Z,6.50
2019-05-09T09:35:27.912Z,6.20
2019-05-09T09:37:57.968Z,5.87
2019-05-09T09:40:27.912Z,6.27
2019-05-09T09:42:58.069Z,6.23
2019-05-09T09:45:28.037Z,6.50
2019-05-09T09:47:59.068Z,6.30
2019-05-09T09:50:27.777Z,6.43
2019-05-09T09:52:58.891Z,6.80
2019-05-09T09:55:27.835Z,6.13
2019-05-09T09:57:57.752Z,6.40
2019-05-09T10:00:38.195Z,5.70
2019-05-09T10:03:07.957Z,6.00
2019-05-09T10:05:38.046Z,5.90
2019-05-09T10:08:10.282Z,5.00
2019-05-09T10:10:37.897Z,5.10
2019-05-09T10:13:10.463Z,5.83
2019-05-09T10:15:41.112Z,5.53
2019-05-09T10:18:11.156Z,5.37
2019-05-09T10:20:41.201Z,4.60
2019-05-09T10:23:17.353Z,4.70
2019-05-09T10:25:39.773Z,5.00
2019-05-09T10:28:08.810Z,4.97
2019-05-09T10:30:38.308Z,5.00
2019-05-09T10:33:09.200Z,5.20
2019-05-09T10:35:39.251Z,5.37
2019-05-09T10:38:08.681Z,4.33
2019-05-09T10:40:39.990Z,6.13
2019-05-09T10:43:36.862Z,5.13
2019-05-09T10:46:16.321Z,4.80
2019-05-09T10:48:47.821Z,4.70
2019-05-09T10:51:15.888Z,4.60
2019-05-09T10:53:44.269Z,4.80
2019-05-09T10:56:12.663Z,4.90
2019-05-09T10:58:41.337Z,4.50
2019-05-09T11:01:10.041Z,4.20
2019-05-09T11:03:38.560Z,4.40
2019-05-09T11:06:08.650Z,4.70
2019-05-09T11:08:38.191Z,4.00
2019-05-09T11:11:09.331Z,3.93
2019-05-09T11:13:38.988Z,4.00
2019-05-09T11:16:07.702Z,3.73
2019-05-09T11:18:36.425Z,4.10
2019-05-09T11:21:04.821Z,4.63
2019-05-09T11:23:33.499Z,3.90
2019-05-09T11:26:02.222Z,4.00
2019-05-09T11:28:30.591Z,3.93
2019-05-09T11:30:59.035Z,4.20
2019-05-09T11:33:27.972Z,3.53
2019-05-09T11:35:58.125Z,3.60
2019-05-09T11:38:33.057Z,3.90
2019-05-09T11:40:57.919Z,4.30
2019-05-09T11:43:29.684Z,5.00
2019-05-09T11:45:58.660Z,3.87
2019-05-09T11:48:28.415Z,4.00
2019-05-09T11:50:58.262Z,3.80
2019-05-09T11:53:28.837Z,3.80
2019-05-09T11:55:57.938Z,3.93
2019-05-09T11:58:28.014Z,4.20
2019-05-09T12:00:56.493Z,4.27
2019-05-09T12:03:24.951Z,4.50
2019-05-09T12:05:53.362Z,4.17
2019-05-09T12:08:21.753Z,4.10
2019-05-09T12:10:50.152Z,3.83
2019-05-09T12:13:18.870Z,4.53
2019-05-09T12:15:49.123Z,3.50
2019-05-09T12:18:17.906Z,3.97
2019-05-09T12:20:48.419Z,3.67
2019-05-09T12:23:19.857Z,4.27
2019-05-09T12:25:47.226Z,3.90
2019-05-09T12:28:18.776Z,4.10
2019-05-09T12:30:48.810Z,4.03
2019-05-09T12:33:18.682Z,4.37
2019-05-09T12:35:47.788Z,4.57
2019-05-09T12:38:18.094Z,4.80
2019-05-09T12:40:48.190Z,4.20
2019-05-09T12:43:18.590Z,4.57
2019-05-09T12:45:47.818Z,4.90
2019-05-09T12:48:19.490Z,4.60
2019-05-09T12:50:48.892Z,5.03
2019-05-09T12:53:18.965Z,4.40
2019-05-09T12:55:47.648Z,4.67
2019-05-09T12:58:28.339Z,4.37
2019-05-09T13:00:59.079Z,4.83
2019-05-09T13:03:28.589Z,4.43
2019-05-09T13:05:57.846Z,4.87
2019-05-09T13:08:27.892Z,4.70
2019-05-09T13:10:58.368Z,4.60
2019-05-09T13:13:30.207Z,4.40
2019-05-09T13:16:04.838Z,4.83
2019-05-09T13:18:51.067Z,4.27
2019-05-09T13:21:19.451Z,4.60
2019-05-09T13:23:52.333Z,4.60
2019-05-09T13:26:18.651Z,4.30
2019-05-09T13:28:48.934Z,4.10
2019-05-09T13:31:18.273Z,4.07
2019-05-09T13:33:48.727Z,4.60
2019-05-09T13:36:18.923Z,4.30
2019-05-09T13:38:57.885Z,4.43
2019-05-09T13:41:17.794Z,4.80
2019-05-09T13:43:53.495Z,4.40
2019-05-09T13:46:17.933Z,4.60
2019-05-09T13:49:05.819Z,4.20
2019-05-09T13:51:18.345Z,4.63
2019-05-09T13:53:48.413Z,4.20
2019-05-09T13:56:17.789Z,4.80
2019-05-09T13:58:48.654Z,4.60
2019-05-09T14:01:17.640Z,4.57
2019-05-09T14:03:48.833Z,5.30
2019-05-09T14:06:16.593Z,5.00
2019-05-09T14:08:45.026Z,4.93
2019-05-09T14:11:13.422Z,6.93
2019-05-09T14:13:42.083Z,6.30
2019-05-09T14:16:19.953Z,4.70
2019-05-09T14:18:40.621Z,5.07
2019-05-09T14:21:09.087Z,5.10
2019-05-09T14:23:48.151Z,5.40
2019-05-09T14:26:09.458Z,5.60
2019-05-09T14:28:38.060Z,5.57
2019-05-09T14:31:07.664Z,5.53
2019-05-09T14:33:43.600Z,5.20
2019-05-09T14:36:12.136Z,5.30
2019-05-09T14:38:44.002Z,5.47
2019-05-09T14:41:12.476Z,5.07
2019-05-09T14:43:44.011Z,5.17
2019-05-09T14:46:12.640Z,5.53
2019-05-09T14:48:48.142Z,5.80
2019-05-09T14:51:18.505Z,6.50
2019-05-09T14:53:49.407Z,6.73
2019-05-09T14:56:23.506Z,5.90
2019-05-09T14:58:55.129Z,5.57
2019-05-09T15:01:23.634Z,5.47
2019-05-09T15:03:51.987Z,5.17
2019-05-09T15:06:20.406Z,5.57
2019-05-09T15:08:48.807Z,5.20
2019-05-09T15:11:18.114Z,4.73
2019-05-09T15:13:47.738Z,5.07
2019-05-09T15:16:18.393Z,6.03
2019-05-09T15:18:48.577Z,5.70
2019-05-09T15:21:18.930Z,5.00
2019-05-09T15:23:48.167Z,5.63
2019-05-09T15:26:17.664Z,5.63
2019-05-09T15:28:48.390Z,5.30
2019-05-09T15:31:18.332Z,5.30
2019-05-09T15:33:48.662Z,5.63
2019-05-09T15:36:21.156Z,5.80
2019-05-09T15:38:49.717Z,5.90
2019-05-09T15:41:18.546Z,5.33
2019-05-09T15:43:48.548Z,5.17
2019-05-09T15:46:27.857Z,5.30
2019-05-09T15:48:58.247Z,5.30
2019-05-09T15:51:27.951Z,5.30
2019-05-09T15:53:57.729Z,5.33
2019-05-09T15:56:28.693Z,5.50
2019-05-09T15:58:57.991Z,5.30
2019-05-09T16:01:27.867Z,6.13
2019-05-09T16:03:56.376Z,5.10
2019-05-09T16:06:24.959Z,5.60
2019-05-09T16:08:53.411Z,5.83
2019-05-09T16:11:22.002Z,5.87
2019-05-09T16:13:50.425Z,5.80
2019-05-09T16:16:18.859Z,5.93
2019-05-09T16:18:48.609Z,5.93
2019-05-09T16:21:17.316Z,5.60
2019-05-09T16:23:48.514Z,5.60
2019-05-09T16:26:17.984Z,5.80
2019-05-09T16:28:48.617Z,7.03
2019-05-09T16:31:16.375Z,6.20
2019-05-09T16:33:47.591Z,6.30
2019-05-09T16:36:17.409Z,6.07
2019-05-09T16:38:48.803Z,6.50
2019-05-09T16:41:18.367Z,5.53
2019-05-09T16:43:47.956Z,5.77
2019-05-09T16:46:18.139Z,6.20
2019-05-09T16:48:47.515Z,6.50
2019-05-09T16:51:18.247Z,5.97
2019-05-09T16:53:47.528Z,6.10
2019-05-09T16:56:18.114Z,6.50
2019-05-09T16:58:46.611Z,6.30
2019-05-09T17:01:18.113Z,5.70
2019-05-09T17:03:45.475Z,5.40
2019-05-09T17:06:13.940Z,5.40
2019-05-09T17:08:42.490Z,5.83
2019-05-09T17:11:11.011Z,5.93
2019-05-09T17:13:39.623Z,5.80
2019-05-09T17:16:08.154Z,5.50
2019-05-09T17:18:38.173Z,5.60
2019-05-09T17:21:18.813Z,5.50
2019-05-09T17:23:47.617Z,5.80
2019-05-09T17:26:17.652Z,6.17
2019-05-09T17:28:48.321Z,5.53
2019-05-09T17:31:18.101Z,5.43
2019-05-09T17:33:48.526Z,5.53
2019-05-09T17:36:18.177Z,5.77
2019-05-09T17:38:47.869Z,6.30
2019-05-09T17:41:17.778Z,5.90
2019-05-09T17:43:47.484Z,5.83
2019-05-09T17:46:15.983Z,5.70
2019-05-09T17:48:44.377Z,6.20
2019-05-09T17:51:12.764Z,5.83
2019-05-09T17:53:41.177Z,5.67
2019-05-09T17:56:10.991Z,6.17
2019-05-09T17:58:39.474Z,6.33
2019-05-09T18:01:08.201Z,5.93
2019-05-09T18:03:38.444Z,6.30
2019-05-09T18:06:08.304Z,6.70
2019-05-09T18:08:37.703Z,6.53
2019-05-09T18:11:08.688Z,6.90
2019-05-09T18:13:38.593Z,6.73
2019-05-09T18:16:06.635Z,6.20
2019-05-09T18:18:35.083Z,6.40
2019-05-09T18:21:03.561Z,6.80
2019-05-09T18:23:31.991Z,6.60
2019-05-09T18:26:00.553Z,6.70
2019-05-09T18:28:34.724Z,7.47
2019-05-09T18:31:03.211Z,6.87
2019-05-09T18:33:37.891Z,7.17
2019-05-09T18:36:06.096Z,7.10
2019-05-09T18:38:35.128Z,7.40
2019-05-09T18:41:06.977Z,10.43
2019-05-09T18:43:34.043Z,10.17
2019-05-09T18:46:02.518Z,9.93
2019-05-09T18:48:30.914Z,10.40
2019-05-09T18:50:59.349Z,10.00
2019-05-09T18:53:27.742Z,10.80
2019-05-09T18:55:56.120Z,11.17
2019-05-09T18:58:24.539Z,11.50
2019-05-09T19:00:53.000Z,10.70
2019-05-09T19:03:21.648Z,12.03
2019-05-09T19:05:50.202Z,11.30
2019-05-09T19:08:18.985Z,10.30
2019-05-09T19:10:47.378Z,8.43
2019-05-09T19:13:15.913Z,10.47
2019-05-09T19:15:48.999Z,9.70
2019-05-09T19:18:21.447Z,9.30
2019-05-09T19:20:51.477Z,8.17
2019-05-09T19:23:19.969Z,8.60
2019-05-09T19:25:48.354Z,8.13
2019-05-09T19:28:17.110Z,9.13
2019-05-09T19:30:45.552Z,8.80
2019-05-09T19:33:13.939Z,9.20
2019-05-09T19:35:42.348Z,9.30
2019-05-09T19:38:11.656Z,9.73
2019-05-09T19:40:40.032Z,9.80
2019-05-09T19:43:08.413Z,10.10
2019-05-09T19:45:36.884Z,10.23
2019-05-09T19:48:05.602Z,10.57
2019-05-09T19:50:34.012Z,9.57
2019-05-09T19:53:03.496Z,9.60
2019-05-09T19:55:32.039Z,11.17
2019-05-09T19:58:00.502Z,10.03
2019-05-09T20:00:29.954Z,9.90
2019-05-09T20:02:58.445Z,10.80
2019-05-09T20:05:27.002Z,11.63
2019-05-09T20:07:55.511Z,10.70
2019-05-09T20:10:25.539Z,10.80
2019-05-09T20:13:12.132Z,11.13
2019-05-09T20:15:41.015Z,10.20
2019-05-09T20:18:09.397Z,10.70
2019-05-09T20:20:37.798Z,11.80
2019-05-09T20:23:06.325Z,11.20
2019-05-09T20:25:34.922Z,11.43
2019-05-09T20:28:03.703Z,11.67
2019-05-09T20:30:32.377Z,12.87
2019-05-09T20:33:00.772Z,13.20
2019-05-09T20:35:29.454Z,13.63
2019-05-09T20:37:58.056Z,13.00
2019-05-09T20:40:26.650Z,13.97
2019-05-09T20:42:55.239Z,13.60
2019-05-09T20:45:23.837Z,13.50
2019-05-09T20:47:52.401Z,12.07
2019-05-09T20:50:21.006Z,12.57
2019-05-09T20:52:49.877Z,13.50
2019-05-09T20:55:18.764Z,12.90
2019-05-09T20:57:47.347Z,13.77
2019-05-09T21:00:16.323Z,12.93
2019-05-09T21:02:45.241Z,14.07
2019-05-09T21:05:13.981Z,12.93
2019-05-09T21:07:43.032Z,12.30
2019-05-09T21:10:12.307Z,13.00
2019-05-09T21:12:41.128Z,13.00
2019-05-09T21:15:11.777Z,14.13
2019-05-09T21:17:40.386Z,13.20
2019-05-09T21:20:09.239Z,14.80
2019-05-09T21:22:38.136Z,15.17
2019-05-09T21:25:08.447Z,15.57
2019-05-09T21:27:37.092Z,15.70
2019-05-09T21:30:09.051Z,15.30
2019-05-09T21:32:37.627Z,15.53
2019-05-09T21:35:06.815Z,15.30
2019-05-09T21:37:35.503Z,15.93
2019-05-09T21:40:06.135Z,17.10
2019-05-09T21:42:34.543Z,18.30
2019-05-09T21:45:02.927Z,17.70
2019-05-09T21:47:31.597Z,17.53
2019-05-09T21:50:00.000Z,17.03
2019-05-09T21:52:28.393Z,16.90
2019-05-09T21:54:56.788Z,17.50
2019-05-09T21:57:25.548Z,17.27
2019-05-09T21:59:53.944Z,17.80
2019-05-09T22:02:22.699Z,20.00
2019-05-09T22:04:51.488Z,18.43
2019-05-09T22:07:20.299Z,19.63
2019-05-09T22:09:48.715Z,18.87
2019-05-09T22:12:17.848Z,18.17
2019-05-09T22:14:46.568Z,18.20
2019-05-09T22:17:17.000Z,20.07
2019-05-09T22:19:45.387Z,18.57
2019-05-09T22:22:13.776Z,18.20
2019-05-09T22:24:42.558Z,19.30
2019-05-09T22:27:11.255Z,18.10
2019-05-09T22:29:39.931Z,18.27
2019-05-09T22:32:08.346Z,19.47
2019-05-09T22:34:36.749Z,19.27
2019-05-09T22:37:05.395Z,18.57
2019-05-09T22:39:33.810Z,19.40
2019-05-09T22:42:02.472Z,18.87
2019-05-09T22:44:31.166Z,20.10
2019-05-09T22:46:59.668Z,18.33
2019-05-09T22:49:28.054Z,20.20
2019-05-09T22:51:56.535Z,20.80
2019-05-09T22:54:24.927Z,20.57
2019-05-09T22:56:53.313Z,20.83
2019-05-09T22:59:21.714Z,21.23
2019-05-09T23:01:50.110Z,21.27
2019-05-09T23:04:19.550Z,20.67
2019-05-09T23:06:47.945Z,20.30
2019-05-09T23:09:16.337Z,21.60
2019-05-09T23:11:45.006Z,19.37
2019-05-09T23:14:13.400Z,19.67
2019-05-09T23:16:42.081Z,18.53
2019-05-09T23:19:10.475Z,18.77
2019-05-09T23:21:38.867Z,19.33
2019-05-09T23:24:09.281Z,17.70
2019-05-09T23:26:37.672Z,18.93
2019-05-09T23:29:06.128Z,18.27
2019-05-09T23:31:36.475Z,17.37
2019-05-09T23:34:05.032Z,16.30
2019-05-09T23:36:33.454Z,18.47
2019-05-09T23:39:12.981Z,17.37
2019-05-09T23:41:41.883Z,17.67
2019-05-09T23:44:10.271Z,17.57
2019-05-09T23:46:38.671Z,16.83
2019-05-09T23:49:07.295Z,16.40
2019-05-09T23:51:45.513Z,16.13
2019-05-09T23:54:45.131Z,17.03
2019-05-09T23:57:23.035Z,15.57
